createdAt,value
2019-02-14T00:00:35.131Z,1.43
2019-02-14T00:05:53.789Z,1.33
2019-02-14T00:11:12.379Z,1.48
2019-02-14T00:16:31.016Z,1.38
2019-02-14T00:21:49.520Z,1.36
2019-02-14T00:27:08.099Z,1.22
2019-02-14T00:32:26.761Z,1.19
2019-02-14T00:37:45.492Z,1.37
2019-02-14T00:43:04.138Z,1.53
2019-02-14T00:48:22.774Z,1.31
2019-02-14T00:53:41.266Z,1.24
2019-02-14T00:58:59.954Z,1.12
2019-02-14T01:04:18.645Z,1.26
2019-02-14T01:09:37.595Z,1.07
2019-02-14T01:14:56.165Z,0.89
2019-02-14T01:20:14.833Z,0.86
2019-02-14T01:25:33.417Z,0.61
2019-02-14T01:30:52.051Z,0.63
2019-02-14T01:36:10.699Z,0.57
2019-02-14T01:41:29.293Z,0.50
2019-02-14T01:46:47.912Z,0.46
2019-02-14T01:52:06.567Z,0.47
2019-02-14T01:57:25.228Z,0.42
2019-02-14T02:02:43.876Z,0.41
2019-02-14T02:08:02.505Z,0.68
2019-02-14T02:13:21.068Z,0.79
2019-02-14T02:18:40.180Z,1.02
2019-02-14T02:23:58.755Z,0.76
2019-02-14T02:29:17.792Z,0.76
2019-02-14T02:34:36.430Z,0.85
2019-02-14T02:39:55.056Z,1.04
2019-02-14T02:45:13.953Z,0.54
2019-02-14T02:50:32.597Z,0.68
2019-02-14T02:55:51.242Z,0.84
2019-02-14T03:01:09.857Z,0.77
2019-02-14T03:06:28.511Z,0.32
2019-02-14T03:11:47.096Z,0.16
2019-02-14T03:17:05.678Z,0.15
2019-02-14T03:22:24.310Z,0.01
2019-02-14T03:27:43.022Z,-0.26
2019-02-14T03:33:01.571Z,-0.10
2019-02-14T03:38:20.167Z,-0.23
2019-02-14T03:43:38.740Z,-0.39
2019-02-14T03:48:57.333Z,-0.58
2019-02-14T03:54:15.969Z,-0.74
2019-02-14T03:59:34.863Z,-0.68
2019-02-14T04:04:53.494Z,-0.76
2019-02-14T04:10:15.730Z,-0.66
2019-02-14T04:15:34.293Z,-0.56
2019-02-14T04:20:52.863Z,-0.85
2019-02-14T04:26:11.418Z,-0.95
2019-02-14T04:31:29.988Z,-1.11
2019-02-14T04:36:48.636Z,-1.28
2019-02-14T04:42:07.506Z,-1.30
2019-02-14T04:47:26.011Z,-1.34
2019-02-14T04:52:44.654Z,-1.48
2019-02-14T04:58:03.300Z,-1.22
2019-02-14T05:03:21.855Z,-1.35
2019-02-14T05:08:40.485Z,-1.31
2019-02-14T05:13:59.170Z,-1.40
2019-02-14T05:19:17.990Z,-1.33
2019-02-14T05:24:38.106Z,-1.46
2019-02-14T05:29:56.682Z,-1.31
2019-02-14T05:35:15.307Z,-1.59
2019-02-14T05:40:33.931Z,-1.58
2019-02-14T05:45:52.844Z,-1.61
2019-02-14T05:51:11.953Z,-1.64
2019-02-14T05:56:30.539Z,-1.78
2019-02-14T06:01:50.648Z,-1.60
2019-02-14T06:07:09.286Z,-1.83
2019-02-14T06:12:28.063Z,-1.88
2019-02-14T06:17:49.686Z,-1.40
2019-02-14T06:23:08.226Z,-1.73
2019-02-14T06:28:29.938Z,-1.93
2019-02-14T06:33:48.823Z,-1.85
2019-02-14T06:39:10.207Z,-2.00
2019-02-14T06:44:28.910Z,-2.00
2019-02-14T06:49:51.578Z,-1.91
2019-02-14T06:55:10.500Z,-1.78
2019-02-14T07:00:29.112Z,-1.61
2019-02-14T07:05:52.004Z,-1.52
2019-02-14T07:11:10.754Z,-1.57
2019-02-14T07:16:29.244Z,-1.57
2019-02-14T07:21:47.718Z,-1.53
2019-02-14T07:27:06.363Z,-0.96
2019-02-14T07:32:25.006Z,-1.16
2019-02-14T07:37:43.552Z,-1.10
2019-02-14T07:43:02.248Z,-0.99
2019-02-14T07:48:20.871Z,-0.23
2019-02-14T07:53:39.412Z,1.37
2019-02-14T07:58:57.885Z,2.55
2019-02-14T08:04:16.501Z,3.41
2019-02-14T08:09:35.405Z,4.54
2019-02-14T08:14:53.955Z,4.44
2019-02-14T08:20:15.006Z,4.88
2019-02-14T08:25:33.605Z,5.45
2019-02-14T08:30:52.143Z,5.83
2019-02-14T08:36:10.771Z,5.93
2019-02-14T08:41:29.312Z,8.45
2019-02-14T08:46:47.888Z,10.19
2019-02-14T08:52:06.495Z,10.33
2019-02-14T08:57:25.125Z,9.72
2019-02-14T09:02:43.744Z,10.42
2019-02-14T09:08:02.381Z,9.94
2019-02-14T09:13:21.030Z,7.96
2019-02-14T09:18:39.589Z,10.00
2019-02-14T09:23:58.406Z,10.22
2019-02-14T09:29:16.877Z,10.56
2019-02-14T09:34:35.432Z,10.08
2019-02-14T09:39:53.969Z,10.31
2019-02-14T09:45:13.910Z,11.75
2019-02-14T09:50:32.462Z,12.17
2019-02-14T09:55:51.003Z,11.96
2019-02-14T10:01:09.553Z,11.34
2019-02-14T10:06:36.311Z,11.52
2019-02-14T10:11:48.544Z,10.79
2019-02-14T10:17:07.416Z,11.08
2019-02-14T10:22:25.956Z,11.32
2019-02-14T10:27:44.581Z,11.82
2019-02-14T10:33:03.493Z,11.52
2019-02-14T10:38:22.799Z,11.45
2019-02-14T10:43:48.653Z,12.05
2019-02-14T10:49:01.950Z,12.38
2019-02-14T10:54:20.514Z,12.58
2019-02-14T10:59:39.151Z,12.25
2019-02-14T11:04:57.768Z,12.33
2019-02-14T11:10:16.684Z,12.87
2019-02-14T11:15:35.413Z,13.31
2019-02-14T11:20:53.961Z,13.92
2019-02-14T11:26:12.660Z,13.83
2019-02-14T11:31:31.223Z,14.16
2019-02-14T11:36:49.795Z,14.35
2019-02-14T11:42:08.419Z,14.06
2019-02-14T11:47:26.981Z,13.32
2019-02-14T11:52:45.578Z,13.20
2019-02-14T11:58:04.227Z,12.88
2019-02-14T12:03:22.867Z,13.16
2019-02-14T12:08:53.033Z,13.57
2019-02-14T12:14:01.751Z,14.04
2019-02-14T12:19:20.309Z,13.91
2019-02-14T12:24:38.855Z,14.06
2019-02-14T12:29:57.436Z,14.38
2019-02-14T12:35:15.966Z,14.58
2019-02-14T12:40:34.572Z,14.72
2019-02-14T12:45:53.393Z,14.69
2019-02-14T12:51:12.024Z,14.85
2019-02-14T12:56:30.672Z,15.04
2019-02-14T13:01:49.317Z,14.80
2019-02-14T13:07:07.973Z,14.73
2019-02-14T13:12:26.625Z,14.95
2019-02-14T13:17:45.250Z,14.93
2019-02-14T13:23:04.167Z,14.79
2019-02-14T13:28:22.877Z,14.88
2019-02-14T13:33:41.860Z,14.51
2019-02-14T13:39:00.497Z,14.64
2019-02-14T13:44:19.031Z,14.77
2019-02-14T13:49:37.595Z,14.91
2019-02-14T13:54:56.072Z,15.15
2019-02-14T14:00:30.373Z,15.22
2019-02-14T14:05:55.129Z,15.19
2019-02-14T14:11:16.188Z,15.33
2019-02-14T14:16:34.754Z,15.47
2019-02-14T14:21:54.955Z,15.16
2019-02-14T14:27:13.524Z,15.21
2019-02-14T14:32:32.089Z,15.06
2019-02-14T14:37:50.583Z,15.06
2019-02-14T14:43:10.778Z,15.12
2019-02-14T14:48:31.053Z,14.97
2019-02-14T14:53:49.682Z,15.02
2019-02-14T14:59:08.248Z,15.00
2019-02-14T15:04:26.736Z,15.03
2019-02-14T15:09:46.912Z,15.04
2019-02-14T15:15:07.034Z,15.31
2019-02-14T15:20:25.607Z,15.17
2019-02-14T15:25:44.254Z,15.05
2019-02-14T15:31:03.016Z,15.11
2019-02-14T15:36:23.784Z,14.58
2019-02-14T15:41:42.032Z,14.51
2019-02-14T15:47:00.705Z,14.05
2019-02-14T15:52:20.708Z,13.71
2019-02-14T15:57:42.254Z,13.38
2019-02-14T16:03:00.503Z,13.13
2019-02-14T16:08:19.697Z,12.63
2019-02-14T16:13:44.818Z,12.26
2019-02-14T16:19:03.448Z,11.98
2019-02-14T16:24:21.983Z,11.67
2019-02-14T16:29:40.663Z,11.32
2019-02-14T16:34:59.306Z,10.94
2019-02-14T16:40:27.867Z,10.51
2019-02-14T16:45:42.910Z,10.21
2019-02-14T16:51:01.368Z,9.91
2019-02-14T16:56:19.980Z,9.77
2019-02-14T17:01:38.537Z,9.34
2019-02-14T17:06:57.146Z,8.53
2019-02-14T17:12:17.514Z,8.51
2019-02-14T17:17:39.278Z,8.15
2019-02-14T17:22:57.897Z,8.06
2019-02-14T17:28:16.431Z,7.54
2019-02-14T17:33:35.018Z,7.54
2019-02-14T17:38:53.560Z,7.24
2019-02-14T17:44:12.092Z,7.18
2019-02-14T17:49:30.709Z,6.82
2019-02-14T17:54:49.586Z,6.39
2019-02-14T18:00:11.513Z,6.42
2019-02-14T18:05:30.060Z,6.16
2019-02-14T18:10:54.783Z,5.91
2019-02-14T18:16:09.207Z,5.71
2019-02-14T18:21:27.824Z,5.48
2019-02-14T18:26:46.743Z,5.38
2019-02-14T18:32:05.372Z,5.15
2019-02-14T18:37:23.843Z,4.82
2019-02-14T18:42:44.691Z,4.68
2019-02-14T18:48:03.368Z,4.23
2019-02-14T18:53:25.052Z,3.94
2019-02-14T18:58:43.547Z,3.77
2019-02-14T19:04:02.173Z,3.82
2019-02-14T19:09:20.791Z,3.48
2019-02-14T19:14:39.335Z,3.34
2019-02-14T19:19:58.151Z,3.19
2019-02-14T19:25:17.050Z,3.01
2019-02-14T19:30:35.675Z,2.99
2019-02-14T19:35:54.252Z,3.32
2019-02-14T19:41:12.742Z,3.60
2019-02-14T19:46:31.438Z,3.43
2019-02-14T19:51:49.921Z,3.11
2019-02-14T19:57:08.533Z,3.15
2019-02-14T20:02:29.156Z,3.18
2019-02-14T20:07:47.791Z,3.31
2019-02-14T20:13:06.421Z,3.31
2019-02-14T20:18:25.039Z,3.65
2019-02-14T20:23:44.520Z,3.68
2019-02-14T20:29:03.066Z,3.02
2019-02-14T20:34:25.921Z,2.69
2019-02-14T20:39:44.447Z,2.24
2019-02-14T20:45:03.179Z,3.15
2019-02-14T20:50:21.772Z,2.63
2019-02-14T20:55:41.765Z,3.19
2019-02-14T21:01:01.244Z,2.83
2019-02-14T21:06:19.860Z,2.14
2019-02-14T21:11:38.497Z,2.11
2019-02-14T21:16:57.048Z,2.80
2019-02-14T21:22:18.556Z,2.37
2019-02-14T21:27:36.010Z,2.41
2019-02-14T21:32:54.662Z,2.94
2019-02-14T21:38:35.407Z,3.24
2019-02-14T21:43:53.991Z,2.96
2019-02-14T21:49:12.681Z,2.79
2019-02-14T21:54:31.220Z,2.96
2019-02-14T21:59:49.768Z,2.85
2019-02-14T22:05:09.991Z,2.88
2019-02-14T22:10:28.692Z,3.50
2019-02-14T22:15:47.361Z,3.49
2019-02-14T22:21:06.011Z,3.37
2019-02-14T22:26:24.642Z,3.14
2019-02-14T22:31:43.178Z,3.75
2019-02-14T22:37:01.718Z,3.90
2019-02-14T22:42:21.165Z,3.78
2019-02-14T22:47:41.613Z,4.19
2019-02-14T22:53:00.361Z,4.25
2019-02-14T22:58:18.902Z,4.17
2019-02-14T23:03:37.554Z,4.28
2019-02-14T23:08:56.197Z,4.42
2019-02-14T23:14:14.810Z,4.43
2019-02-14T23:19:33.434Z,5.02
2019-02-14T23:24:52.062Z,5.41
2019-02-14T23:30:12.266Z,5.44
2019-02-14T23:35:30.987Z,5.65
2019-02-14T23:40:49.722Z,5.95
2019-02-14T23:46:08.825Z,6.12
2019-02-14T23:51:27.446Z,6.30
2019-02-14T23:56:45.983Z,6.01
